createdAt,value
2022-10-13T00:03:02.348Z,2.97
2022-10-13T00:06:07.302Z,3.25
2022-10-13T00:09:09.661Z,4.10
2022-10-13T00:12:12.039Z,3.40
2022-10-13T00:15:14.405Z,4.30
2022-10-13T00:18:17.005Z,4.50
2022-10-13T00:21:23.030Z,4.20
2022-10-13T00:24:25.391Z,4.10
2022-10-13T00:27:27.829Z,5.28
2022-10-13T00:30:34.713Z,5.10
2022-10-13T00:33:37.030Z,9.05
2022-10-13T00:36:39.515Z,8.32
2022-10-13T00:39:41.915Z,7.35
2022-10-13T00:42:44.364Z,5.95
2022-10-13T00:45:49.834Z,6.93
2022-10-13T00:48:52.768Z,7.65
2022-10-13T00:51:55.146Z,6.57
2022-10-13T00:54:58.460Z,6.20
2022-10-13T00:58:05.421Z,6.22
2022-10-13T01:01:08.366Z,6.47
2022-10-13T01:04:11.116Z,6.18
2022-10-13T01:07:15.174Z,6.45
2022-10-13T01:10:29.979Z,6.10
2022-10-13T01:13:49.056Z,7.93
2022-10-13T01:17:14.441Z,8.77
2022-10-13T01:20:50.768Z,11.77
2022-10-13T01:24:08.058Z,12.18
2022-10-13T01:27:16.256Z,9.75
2022-10-13T01:30:20.494Z,9.50
2022-10-13T01:33:45.926Z,7.90
2022-10-13T01:36:59.945Z,8.38
2022-10-13T01:40:24.949Z,7.13
2022-10-13T01:43:47.437Z,6.95
2022-10-13T01:46:50.874Z,10.88
2022-10-13T01:49:54.365Z,11.80
2022-10-13T01:52:59.676Z,10.73
2022-10-13T01:56:02.079Z,8.07
2022-10-13T01:59:13.235Z,7.53
2022-10-13T02:02:23.667Z,9.13
2022-10-13T02:05:49.247Z,8.43
2022-10-13T02:09:09.500Z,7.07
2022-10-13T02:12:23.579Z,5.30
2022-10-13T02:15:31.672Z,5.85
2022-10-13T02:18:36.095Z,6.05
2022-10-13T02:21:41.953Z,5.47
2022-10-13T02:24:44.420Z,6.03
2022-10-13T02:27:46.827Z,6.13
2022-10-13T02:30:49.415Z,5.88
2022-10-13T02:33:51.903Z,5.68
2022-10-13T02:36:54.327Z,7.17
2022-10-13T02:39:56.712Z,6.85
2022-10-13T02:42:59.116Z,6.93
2022-10-13T02:46:01.436Z,8.00
2022-10-13T02:49:04.198Z,7.60
2022-10-13T02:52:06.876Z,7.30
2022-10-13T02:55:09.395Z,8.05
2022-10-13T02:58:12.716Z,9.95
2022-10-13T03:01:15.915Z,7.82
2022-10-13T03:04:18.447Z,6.90
2022-10-13T03:07:20.790Z,8.20
2022-10-13T03:10:23.158Z,7.82
2022-10-13T03:13:27.773Z,6.57
2022-10-13T03:16:36.061Z,7.65
2022-10-13T03:19:38.508Z,6.78
2022-10-13T03:22:40.823Z,6.93
2022-10-13T03:25:43.320Z,6.50
2022-10-13T03:28:52.305Z,7.22
2022-10-13T03:31:54.775Z,7.70
2022-10-13T03:34:57.125Z,6.78
2022-10-13T03:37:59.503Z,7.97
2022-10-13T03:41:07.819Z,7.47
2022-10-13T03:44:13.395Z,7.05
2022-10-13T03:47:15.824Z,8.07
2022-10-13T03:50:18.462Z,6.80
2022-10-13T03:53:20.816Z,7.07
2022-10-13T03:56:26.191Z,7.70
2022-10-13T03:59:34.166Z,8.45
2022-10-13T04:02:38.919Z,7.55
2022-10-13T04:05:41.303Z,9.75
2022-10-13T04:08:43.925Z,7.87
2022-10-13T04:11:46.272Z,7.80
2022-10-13T04:14:48.676Z,7.40
2022-10-13T04:17:51.087Z,29.02
2022-10-13T04:20:53.485Z,14.82
2022-10-13T04:23:57.331Z,24.10
2022-10-13T04:26:59.679Z,17.25
2022-10-13T04:30:02.115Z,11.93
2022-10-13T04:33:05.236Z,10.32
2022-10-13T04:36:09.063Z,10.10
2022-10-13T04:39:11.409Z,15.20
2022-10-13T04:42:13.900Z,8.25
2022-10-13T04:45:16.562Z,6.68
2022-10-13T04:48:24.764Z,9.65
2022-10-13T04:51:27.311Z,10.40
2022-10-13T04:54:29.703Z,6.50
2022-10-13T04:57:32.064Z,7.75
2022-10-13T05:00:35.524Z,5.30
2022-10-13T05:03:38.016Z,8.75
2022-10-13T05:07:05.411Z,10.13
2022-10-13T05:10:05.236Z,10.37
2022-10-13T05:13:07.797Z,10.48
2022-10-13T05:16:12.914Z,8.52
2022-10-13T05:19:15.630Z,9.05
2022-10-13T05:22:18.336Z,7.78
2022-10-13T05:25:22.979Z,8.20
2022-10-13T05:28:25.470Z,7.07
2022-10-13T05:31:29.267Z,6.65
2022-10-13T05:34:33.356Z,6.55
2022-10-13T05:37:35.748Z,10.52
2022-10-13T05:40:38.133Z,26.53
2022-10-13T05:43:41.959Z,65.75
2022-10-13T05:46:44.350Z,49.90
2022-10-13T05:49:46.796Z,24.42
2022-10-13T05:52:49.350Z,27.13
2022-10-13T05:55:52.684Z,24.93
2022-10-13T05:59:00.045Z,18.50
2022-10-13T06:02:03.707Z,23.92
2022-10-13T06:05:08.587Z,23.13
2022-10-13T06:08:11.128Z,23.58
2022-10-13T06:11:17.856Z,19.90
2022-10-13T06:14:20.341Z,11.43
2022-10-13T06:17:22.804Z,8.07
2022-10-13T06:20:27.551Z,7.00
2022-10-13T06:23:30.188Z,6.40
2022-10-13T06:26:32.648Z,6.60
2022-10-13T06:29:36.069Z,6.03
2022-10-13T06:32:38.461Z,5.70
2022-10-13T06:35:41.421Z,5.47
2022-10-13T06:38:47.498Z,5.35
2022-10-13T06:41:52.735Z,5.43
2022-10-13T06:44:55.939Z,5.90
2022-10-13T06:47:58.278Z,5.93
2022-10-13T06:51:11.060Z,6.97
2022-10-13T06:54:13.495Z,7.78
2022-10-13T06:57:15.922Z,7.07
2022-10-13T07:00:19.089Z,6.43
2022-10-13T07:03:22.189Z,6.20
2022-10-13T07:06:24.853Z,5.75
2022-10-13T07:09:29.483Z,5.50
2022-10-13T07:12:31.783Z,5.57
2022-10-13T07:15:34.832Z,5.80
2022-10-13T07:18:37.279Z,6.60
2022-10-13T07:21:39.651Z,6.75
2022-10-13T07:24:42.563Z,6.43
2022-10-13T07:27:45.065Z,6.03
2022-10-13T07:30:47.514Z,6.05
2022-10-13T07:33:51.603Z,6.22
2022-10-13T07:36:54.095Z,7.15
2022-10-13T07:39:56.454Z,6.93
2022-10-13T07:43:01.662Z,6.23
2022-10-13T07:46:06.282Z,6.63
2022-10-13T07:49:11.252Z,6.25
2022-10-13T07:52:16.161Z,6.50
2022-10-13T07:55:18.566Z,6.25
2022-10-13T07:58:21.027Z,6.27
2022-10-13T08:01:23.435Z,7.90
2022-10-13T08:04:28.813Z,7.22
2022-10-13T08:07:31.188Z,6.13
2022-10-13T08:10:33.536Z,6.10
2022-10-13T08:13:36.009Z,8.30
2022-10-13T08:16:53.890Z,8.20
2022-10-13T08:19:56.374Z,7.03
2022-10-13T08:23:01.665Z,5.90
2022-10-13T08:26:04.046Z,6.25
2022-10-13T08:29:24.063Z,6.23
2022-10-13T08:32:27.302Z,6.25
2022-10-13T08:35:34.140Z,6.40
2022-10-13T08:38:37.446Z,6.90
2022-10-13T08:41:43.736Z,8.38
2022-10-13T08:45:16.144Z,6.37
2022-10-13T08:48:19.231Z,7.20
2022-10-13T08:51:21.703Z,9.52
2022-10-13T08:54:25.028Z,6.22
2022-10-13T08:57:27.391Z,5.72
2022-10-13T09:00:30.397Z,5.87
2022-10-13T09:03:41.927Z,4.97
2022-10-13T09:06:45.678Z,5.32
2022-10-13T09:09:52.009Z,4.45
2022-10-13T09:12:56.212Z,5.10
2022-10-13T09:15:58.833Z,4.87
2022-10-13T09:19:15.298Z,3.78
2022-10-13T09:22:30.009Z,4.38
2022-10-13T09:25:50.813Z,4.40
2022-10-13T09:28:53.332Z,4.40
2022-10-13T09:32:24.815Z,3.83
2022-10-13T09:35:27.312Z,3.50
2022-10-13T09:38:30.552Z,3.85
2022-10-13T09:41:33.637Z,5.18
2022-10-13T09:44:36.069Z,4.32
2022-10-13T09:47:38.562Z,5.27
2022-10-13T09:50:48.482Z,4.90
2022-10-13T09:53:51.004Z,7.50
2022-10-13T09:56:59.274Z,4.28
2022-10-13T10:00:28.018Z,3.55
2022-10-13T10:03:36.032Z,3.60
2022-10-13T10:06:39.014Z,3.47
2022-10-13T10:09:48.231Z,3.85
2022-10-13T10:12:54.603Z,4.00
2022-10-13T10:16:07.717Z,4.00
2022-10-13T10:19:20.714Z,4.53
2022-10-13T10:22:47.796Z,4.47
2022-10-13T10:26:06.388Z,4.57
2022-10-13T10:29:24.090Z,4.18
2022-10-13T10:32:32.737Z,4.35
2022-10-13T10:35:49.789Z,4.23
2022-10-13T10:39:00.072Z,4.57
2022-10-13T10:42:35.857Z,4.88
2022-10-13T10:45:39.730Z,5.40
2022-10-13T10:48:44.685Z,4.93
2022-10-13T10:51:47.570Z,5.10
2022-10-13T10:55:00.008Z,5.13
2022-10-13T10:58:06.679Z,5.28
2022-10-13T11:01:12.450Z,5.55
2022-10-13T11:04:41.874Z,4.85
2022-10-13T11:07:44.410Z,4.73
2022-10-13T11:10:46.908Z,5.88
2022-10-13T11:14:11.191Z,11.65
2022-10-13T11:17:39.082Z,5.30
2022-10-13T11:20:49.802Z,5.60
2022-10-13T11:23:52.324Z,5.37
2022-10-13T11:26:54.742Z,5.70
2022-10-13T11:29:59.019Z,5.32
2022-10-13T11:33:09.129Z,5.25
2022-10-13T11:36:36.470Z,6.07
2022-10-13T11:39:59.522Z,6.03
2022-10-13T11:43:18.287Z,5.82
2022-10-13T11:46:25.649Z,5.80
2022-10-13T11:49:49.400Z,6.65
2022-10-13T11:53:11.496Z,6.45
2022-10-13T11:56:56.971Z,7.53
2022-10-13T11:59:59.371Z,6.28
2022-10-13T12:03:04.962Z,6.57
2022-10-13T12:06:16.884Z,6.68
2022-10-13T12:09:21.621Z,6.55
2022-10-13T12:12:25.038Z,8.03
2022-10-13T12:15:40.511Z,10.48
2022-10-13T12:18:42.922Z,6.90
2022-10-13T12:21:57.130Z,6.43
2022-10-13T12:25:01.910Z,8.00
2022-10-13T12:28:07.176Z,7.43
2022-10-13T12:31:18.398Z,7.20
2022-10-13T12:34:27.685Z,6.85
2022-10-13T12:37:33.534Z,7.47
2022-10-13T12:40:36.025Z,6.93
2022-10-13T12:43:38.603Z,6.90
2022-10-13T12:46:58.727Z,6.78
2022-10-13T12:50:29.245Z,6.88
2022-10-13T12:53:32.669Z,8.13
2022-10-13T12:56:35.190Z,7.88
2022-10-13T12:59:42.235Z,6.77
2022-10-13T13:02:52.526Z,6.78
2022-10-13T13:06:13.236Z,7.43
2022-10-13T13:09:21.914Z,6.90
2022-10-13T13:12:27.630Z,8.27
2022-10-13T13:15:35.655Z,7.40
2022-10-13T13:18:41.671Z,8.95
2022-10-13T13:21:44.175Z,7.32
2022-10-13T13:24:46.971Z,6.63
2022-10-13T13:27:49.563Z,7.28
2022-10-13T13:30:52.056Z,6.70
2022-10-13T13:33:54.622Z,6.85
2022-10-13T13:36:57.033Z,8.40
2022-10-13T13:40:00.361Z,6.70
2022-10-13T13:43:03.029Z,7.47
2022-10-13T13:46:09.858Z,7.00
2022-10-13T13:49:12.377Z,6.53
2022-10-13T13:52:15.737Z,6.32
2022-10-13T13:55:18.195Z,6.30
2022-10-13T13:58:20.829Z,7.88
2022-10-13T14:01:23.710Z,6.77
2022-10-13T14:04:26.139Z,6.00
2022-10-13T14:07:28.498Z,6.35
2022-10-13T14:10:33.635Z,6.43
2022-10-13T14:13:36.153Z,6.35
2022-10-13T14:16:38.611Z,6.40
2022-10-13T14:19:42.073Z,6.00
2022-10-13T14:22:44.482Z,6.45
2022-10-13T14:25:46.872Z,5.57
2022-10-13T14:28:50.013Z,5.93
2022-10-13T14:31:52.428Z,5.40
2022-10-13T14:34:54.840Z,5.93
2022-10-13T14:37:57.255Z,6.43
2022-10-13T14:41:00.876Z,6.22
2022-10-13T14:44:03.272Z,6.00
2022-10-13T14:47:05.719Z,6.70
2022-10-13T14:50:08.703Z,8.00
2022-10-13T14:53:15.289Z,7.75
2022-10-13T14:56:21.077Z,6.13
2022-10-13T14:59:27.655Z,6.13
2022-10-13T15:02:30.115Z,5.90
2022-10-13T15:05:32.539Z,6.38
2022-10-13T15:08:34.956Z,5.55
2022-10-13T15:11:37.388Z,6.65
2022-10-13T15:14:39.855Z,6.90
2022-10-13T15:17:42.249Z,6.50
2022-10-13T15:20:48.275Z,6.22
2022-10-13T15:23:52.000Z,6.10
2022-10-13T15:26:54.467Z,6.03
2022-10-13T15:30:02.467Z,6.30
2022-10-13T15:33:05.920Z,7.00
2022-10-13T15:36:08.442Z,7.22
2022-10-13T15:39:14.857Z,7.90
2022-10-13T15:42:17.272Z,8.00
2022-10-13T15:45:19.740Z,8.27
2022-10-13T15:48:22.797Z,13.03
2022-10-13T15:51:26.900Z,8.85
2022-10-13T15:54:29.590Z,8.25
2022-10-13T15:57:32.033Z,7.28
2022-10-13T16:00:34.479Z,7.95
2022-10-13T16:03:38.914Z,7.43
2022-10-13T16:06:41.477Z,6.88
2022-10-13T16:09:44.634Z,7.55
2022-10-13T16:12:49.635Z,7.45
2022-10-13T16:15:59.624Z,6.93
2022-10-13T16:19:02.036Z,10.83
2022-10-13T16:22:04.546Z,49.28
2022-10-13T16:25:07.517Z,69.28
2022-10-13T16:28:09.879Z,26.92
2022-10-13T16:31:15.933Z,21.10
2022-10-13T16:34:18.325Z,16.60
2022-10-13T16:37:20.890Z,8.98
2022-10-13T16:40:23.427Z,8.90
2022-10-13T16:43:25.856Z,9.50
2022-10-13T16:46:29.246Z,8.38
2022-10-13T16:49:32.073Z,9.30
2022-10-13T16:52:34.472Z,14.35
2022-10-13T16:55:39.821Z,12.40
2022-10-13T16:58:45.090Z,11.73
2022-10-13T17:01:48.818Z,19.13
2022-10-13T17:04:51.319Z,28.07
2022-10-13T17:07:53.701Z,99.60
2022-10-13T17:10:58.456Z,73.25
2022-10-13T17:14:01.459Z,33.88
2022-10-13T17:17:05.593Z,16.95
2022-10-13T17:20:08.326Z,13.57
2022-10-13T17:23:11.864Z,11.57
2022-10-13T17:26:14.813Z,14.82
2022-10-13T17:29:17.441Z,26.52
2022-10-13T17:32:19.862Z,27.17
2022-10-13T17:35:23.245Z,26.03
2022-10-13T17:38:26.057Z,26.67
2022-10-13T17:41:28.409Z,35.33
2022-10-13T17:44:30.891Z,27.55
2022-10-13T17:47:33.332Z,16.65
2022-10-13T17:50:36.260Z,117.80
2022-10-13T17:53:39.552Z,30.52
2022-10-13T17:56:42.361Z,22.90
2022-10-13T17:59:45.703Z,19.48
2022-10-13T18:02:48.163Z,25.60
2022-10-13T18:05:52.491Z,32.87
2022-10-13T18:08:54.890Z,37.70
2022-10-13T18:11:57.277Z,64.65
2022-10-13T18:14:59.735Z,117.10
2022-10-13T18:18:02.113Z,40.00
2022-10-13T18:21:06.062Z,42.67
2022-10-13T18:24:09.497Z,31.25
2022-10-13T18:27:11.907Z,31.60
2022-10-13T18:30:16.580Z,21.10
2022-10-13T18:33:22.432Z,22.45
2022-10-13T18:36:28.187Z,18.10
2022-10-13T18:39:31.764Z,14.52
2022-10-13T18:42:34.214Z,13.73
2022-10-13T18:45:36.577Z,16.88
2022-10-13T18:48:39.133Z,24.83
2022-10-13T18:51:41.479Z,21.00
2022-10-13T18:54:45.465Z,19.15
2022-10-13T18:57:47.850Z,20.10
2022-10-13T19:00:50.492Z,20.30
2022-10-13T19:03:53.688Z,19.48
2022-10-13T19:06:56.093Z,21.67
2022-10-13T19:09:58.547Z,18.70
2022-10-13T19:13:00.976Z,20.02
2022-10-13T19:16:04.699Z,20.05
2022-10-13T19:19:09.209Z,15.20
2022-10-13T19:22:12.032Z,14.77
2022-10-13T19:25:14.406Z,14.77
2022-10-13T19:28:17.218Z,14.93
2022-10-13T19:31:22.498Z,13.20
2022-10-13T19:34:24.844Z,13.60
2022-10-13T19:37:27.261Z,18.20
2022-10-13T19:40:30.053Z,22.10
2022-10-13T19:43:33.169Z,19.77
2022-10-13T19:46:35.849Z,15.13
2022-10-13T19:49:38.247Z,16.65
2022-10-13T19:52:41.489Z,16.93
2022-10-13T19:55:46.544Z,21.73
2022-10-13T19:58:48.984Z,35.65
2022-10-13T20:07:44.887Z,26.40
2022-10-13T20:10:48.224Z,22.50
2022-10-13T20:13:50.715Z,23.77
2022-10-13T20:16:53.458Z,21.83
2022-10-13T20:19:55.846Z,21.83
2022-10-13T20:22:58.165Z,17.02
2022-10-13T20:26:05.917Z,20.17
2022-10-13T20:29:10.220Z,22.15
2022-10-13T20:32:12.663Z,19.92
2022-10-13T20:35:15.090Z,19.88
2022-10-13T20:38:18.212Z,22.35
2022-10-13T20:41:20.482Z,20.87
2022-10-13T20:44:22.950Z,22.23
2022-10-13T20:47:25.339Z,16.52
2022-10-13T20:50:27.746Z,15.98
2022-10-13T20:53:30.530Z,14.48
2022-10-13T20:56:35.724Z,12.50
2022-10-13T20:59:38.281Z,13.13
2022-10-13T21:02:40.624Z,12.95
2022-10-13T21:05:42.961Z,14.60
2022-10-13T21:08:46.403Z,14.70
2022-10-13T21:11:48.769Z,12.83
2022-10-13T21:14:51.247Z,13.32
2022-10-13T21:17:53.619Z,14.75
2022-10-13T21:20:56.067Z,15.82
2022-10-13T21:24:01.046Z,15.48
2022-10-13T21:27:03.583Z,16.47
2022-10-13T21:30:06.782Z,17.30
2022-10-13T21:33:09.204Z,15.95
2022-10-13T21:36:15.703Z,15.38
2022-10-13T21:39:18.633Z,14.63
2022-10-13T21:42:20.923Z,14.83
2022-10-13T21:45:23.803Z,14.50
2022-10-13T21:48:26.170Z,13.75
2022-10-13T21:51:30.923Z,15.68
2022-10-13T21:54:33.320Z,15.07
2022-10-13T21:57:35.727Z,13.73
2022-10-13T22:00:38.224Z,13.85
2022-10-13T22:03:41.708Z,13.95
2022-10-13T22:06:44.124Z,13.65
2022-10-13T22:09:46.478Z,14.23
2022-10-13T22:12:48.875Z,14.80
2022-10-13T22:15:51.245Z,13.18
2022-10-13T22:18:56.487Z,13.60
2022-10-13T22:21:58.888Z,14.30
2022-10-13T22:25:02.084Z,14.98
2022-10-13T22:28:07.684Z,13.17
2022-10-13T22:31:12.839Z,14.15
2022-10-13T22:34:15.953Z,14.43
2022-10-13T22:37:18.517Z,14.23
2022-10-13T22:40:20.982Z,14.32
2022-10-13T22:43:23.386Z,13.83
2022-10-13T22:46:31.264Z,15.32
2022-10-13T22:49:33.670Z,13.93
2022-10-13T22:52:36.082Z,13.48
2022-10-13T22:55:41.971Z,13.35
2022-10-13T22:58:44.488Z,12.23
2022-10-13T23:01:46.822Z,13.27
2022-10-13T23:04:49.512Z,11.98
2022-10-13T23:07:51.929Z,12.73
2022-10-13T23:10:54.231Z,12.63
2022-10-13T23:13:56.626Z,13.97
2022-10-13T23:16:59.029Z,15.18
2022-10-13T23:20:01.588Z,16.23
2022-10-13T23:23:03.944Z,16.55
2022-10-13T23:26:08.708Z,14.25
2022-10-13T23:29:13.145Z,14.70
2022-10-13T23:32:15.502Z,15.82
2022-10-13T23:35:18.264Z,15.23
2022-10-13T23:38:20.989Z,14.60
2022-10-13T23:41:23.574Z,14.70
2022-10-13T23:44:25.989Z,15.10
2022-10-13T23:47:30.830Z,15.93
2022-10-13T23:50:33.411Z,13.27
2022-10-13T23:53:37.292Z,13.52
2022-10-13T23:56:39.736Z,13.10
2022-10-13T23:59:42.096Z,12.73
